createdAt,value
2023-05-16T00:00:18.824Z,86.14
2023-05-16T00:02:45.742Z,86.14
2023-05-16T00:05:14.835Z,86.04
2023-05-16T00:07:46.528Z,86.29
2023-05-16T00:10:13.924Z,86.19
2023-05-16T00:12:40.615Z,85.98
2023-05-16T00:15:09.087Z,85.83
2023-05-16T00:17:36.414Z,86.20
2023-05-16T00:20:11.331Z,85.96
2023-05-16T00:22:38.258Z,86.13
2023-05-16T00:25:05.388Z,86.22
2023-05-16T00:27:34.849Z,86.07
2023-05-16T00:30:02.821Z,86.29
2023-05-16T00:32:29.580Z,86.02
2023-05-16T00:34:56.600Z,86.19
2023-05-16T00:37:23.279Z,86.10
2023-05-16T00:39:50.007Z,86.14
2023-05-16T00:42:20.102Z,86.37
2023-05-16T00:44:47.568Z,86.17
2023-05-16T00:47:14.978Z,86.32
2023-05-16T00:49:42.218Z,86.56
2023-05-16T00:52:09.065Z,86.55
2023-05-16T00:54:36.295Z,86.56
2023-05-16T00:57:03.758Z,86.42
2023-05-16T00:59:31.048Z,86.51
2023-05-16T01:01:57.800Z,86.53
2023-05-16T01:04:25.432Z,86.78
2023-05-16T01:06:52.418Z,86.73
2023-05-16T01:09:19.629Z,86.54
2023-05-16T01:11:49.077Z,86.66
2023-05-16T01:14:33.872Z,86.84
2023-05-16T01:17:16.178Z,86.83
2023-05-16T01:20:21.417Z,86.83
2023-05-16T01:23:16.790Z,86.75
2023-05-16T01:25:52.594Z,86.88
2023-05-16T01:28:20.203Z,86.83
2023-05-16T01:30:46.899Z,86.91
2023-05-16T01:33:13.670Z,86.65
2023-05-16T01:35:53.522Z,86.67
2023-05-16T01:38:30.759Z,86.71
2023-05-16T01:41:08.129Z,86.66
2023-05-16T01:43:40.114Z,86.61
2023-05-16T01:46:12.778Z,86.50
2023-05-16T01:48:53.273Z,86.42
2023-05-16T01:51:25.797Z,86.27
2023-05-16T01:53:53.701Z,86.67
2023-05-16T01:56:21.709Z,86.67
2023-05-16T01:58:50.564Z,86.33
2023-05-16T02:01:17.575Z,86.70
2023-05-16T02:03:44.336Z,86.66
2023-05-16T02:06:11.095Z,86.62
2023-05-16T02:08:38.061Z,86.22
2023-05-16T02:11:04.753Z,86.30
2023-05-16T02:13:31.421Z,86.47
2023-05-16T02:15:58.269Z,86.43
2023-05-16T02:18:24.940Z,86.68
2023-05-16T02:20:52.328Z,86.70
2023-05-16T02:23:19.122Z,86.72
2023-05-16T02:25:45.872Z,86.71
2023-05-16T02:28:12.512Z,86.86
2023-05-16T02:30:39.272Z,86.87
2023-05-16T02:33:06.265Z,86.98
2023-05-16T02:35:32.972Z,86.85
2023-05-16T02:37:59.778Z,86.91
2023-05-16T02:40:26.475Z,86.72
2023-05-16T02:42:53.165Z,86.78
2023-05-16T02:45:19.884Z,86.71
2023-05-16T02:47:46.610Z,86.59
2023-05-16T02:50:13.912Z,86.43
2023-05-16T02:52:40.879Z,86.27
2023-05-16T02:57:39.107Z,86.17
2023-05-16T03:00:06.563Z,85.87
2023-05-16T03:02:33.613Z,85.67
2023-05-16T03:05:00.710Z,85.78
2023-05-16T03:07:27.522Z,86.01
2023-05-16T03:09:54.137Z,85.96
2023-05-16T03:12:20.826Z,85.81
2023-05-16T03:14:47.597Z,85.42
2023-05-16T03:17:14.255Z,85.64
2023-05-16T03:19:40.895Z,85.44
2023-05-16T03:22:07.662Z,85.29
2023-05-16T03:24:34.369Z,85.39
2023-05-16T03:27:01.285Z,85.38
2023-05-16T03:29:28.073Z,85.02
2023-05-16T03:31:55.372Z,85.14
2023-05-16T03:34:22.208Z,84.88
2023-05-16T03:36:52.004Z,85.00
2023-05-16T03:39:18.688Z,84.74
2023-05-16T03:41:45.304Z,83.83
2023-05-16T03:44:12.167Z,82.82
2023-05-16T03:46:38.823Z,81.87
2023-05-16T03:49:05.870Z,80.85
2023-05-16T03:51:33.608Z,79.80
2023-05-16T03:54:00.444Z,78.40
2023-05-16T03:56:27.363Z,76.94
2023-05-16T03:58:53.993Z,75.65
2023-05-16T04:01:20.691Z,74.80
2023-05-16T04:03:47.389Z,73.65
2023-05-16T04:06:14.295Z,73.16
2023-05-16T04:08:41.304Z,72.38
2023-05-16T04:11:08.004Z,71.11
2023-05-16T04:13:34.889Z,69.99
2023-05-16T04:16:01.582Z,69.65
2023-05-16T04:18:28.250Z,69.03
2023-05-16T04:20:54.955Z,68.25
2023-05-16T04:23:21.624Z,67.48
2023-05-16T04:25:48.204Z,67.05
2023-05-16T04:28:14.964Z,66.50
2023-05-16T04:30:41.620Z,65.31
2023-05-16T04:33:08.520Z,64.35
2023-05-16T04:35:35.648Z,63.27
2023-05-16T04:38:02.776Z,61.82
2023-05-16T04:40:29.585Z,61.19
2023-05-16T04:42:56.399Z,60.56
2023-05-16T04:45:23.226Z,59.78
2023-05-16T04:47:49.963Z,58.70
2023-05-16T04:50:18.244Z,58.34
2023-05-16T04:52:45.018Z,57.50
2023-05-16T04:55:11.835Z,56.88
2023-05-16T04:57:38.484Z,56.70
2023-05-16T05:00:09.108Z,56.46
2023-05-16T05:02:36.103Z,56.12
2023-05-16T05:05:03.523Z,55.82
2023-05-16T05:07:30.334Z,55.32
2023-05-16T05:09:57.258Z,54.25
2023-05-16T05:12:24.116Z,54.34
2023-05-16T05:14:51.247Z,54.16
2023-05-16T05:17:18.256Z,54.32
2023-05-16T05:19:45.166Z,54.15
2023-05-16T05:22:12.218Z,54.00
2023-05-16T05:24:38.878Z,54.00
2023-05-16T05:27:05.820Z,53.77
2023-05-16T05:29:32.749Z,54.70
2023-05-16T05:31:59.477Z,55.10
2023-05-16T05:34:26.108Z,54.59
2023-05-16T05:36:52.829Z,54.72
2023-05-16T05:39:19.493Z,54.93
2023-05-16T05:41:46.249Z,54.34
2023-05-16T05:44:13.041Z,53.96
2023-05-16T05:46:40.234Z,53.86
2023-05-16T05:49:07.070Z,53.05
2023-05-16T05:51:33.877Z,52.39
2023-05-16T05:54:01.706Z,52.58
2023-05-16T05:56:28.686Z,52.18
2023-05-16T05:58:55.398Z,50.99
2023-05-16T06:01:22.394Z,51.58
2023-05-16T06:03:49.018Z,51.24
2023-05-16T06:06:16.017Z,50.22
2023-05-16T06:08:42.746Z,49.65
2023-05-16T06:11:09.538Z,49.44
2023-05-16T06:13:36.497Z,49.41
2023-05-16T06:16:03.385Z,50.10
2023-05-16T06:18:30.173Z,50.34
2023-05-16T06:20:56.978Z,50.56
2023-05-16T06:23:23.652Z,51.15
2023-05-16T06:25:51.114Z,50.77
2023-05-16T06:28:17.914Z,49.94
2023-05-16T06:30:44.623Z,49.92
2023-05-16T06:33:11.554Z,48.66
2023-05-16T06:35:39.728Z,49.11
2023-05-16T06:38:06.426Z,48.96
2023-05-16T06:40:33.238Z,49.13
2023-05-16T06:43:00.094Z,48.59
2023-05-16T06:45:27.402Z,48.53
2023-05-16T06:47:55.948Z,49.57
2023-05-16T06:50:24.223Z,49.71
2023-05-16T06:52:51.035Z,49.83
2023-05-16T06:55:17.722Z,49.89
2023-05-16T06:57:44.661Z,48.68
2023-05-16T07:00:12.082Z,47.83
2023-05-16T07:02:39.067Z,48.42
2023-05-16T07:05:07.336Z,50.53
2023-05-16T07:07:34.058Z,50.98
2023-05-16T07:10:01.020Z,50.62
2023-05-16T07:12:28.021Z,50.22
2023-05-16T07:14:54.879Z,49.27
2023-05-16T07:17:21.600Z,48.58
2023-05-16T07:19:50.096Z,48.83
2023-05-16T07:22:16.860Z,48.42
2023-05-16T07:24:43.672Z,48.76
2023-05-16T07:27:10.953Z,48.58
2023-05-16T07:29:41.145Z,48.65
2023-05-16T07:32:08.271Z,48.92
2023-05-16T07:34:35.199Z,47.42
2023-05-16T07:37:01.891Z,48.14
2023-05-16T07:39:28.646Z,47.61
2023-05-16T07:41:55.792Z,48.71
2023-05-16T07:44:22.726Z,48.28
2023-05-16T07:46:49.457Z,47.76
2023-05-16T07:49:17.285Z,48.63
2023-05-16T07:51:43.984Z,48.86
2023-05-16T07:54:10.795Z,49.50
2023-05-16T07:56:38.703Z,48.52
2023-05-16T07:59:07.149Z,48.04
2023-05-16T08:01:34.371Z,48.09
2023-05-16T08:04:01.170Z,48.11
2023-05-16T08:06:27.966Z,49.01
2023-05-16T08:08:55.192Z,47.47
2023-05-16T08:11:22.717Z,47.15
2023-05-16T08:13:50.492Z,48.24
2023-05-16T08:16:17.802Z,49.63
2023-05-16T08:18:44.649Z,49.92
2023-05-16T08:21:11.648Z,49.89
2023-05-16T08:23:38.383Z,48.55
2023-05-16T08:26:05.458Z,50.20
2023-05-16T08:28:32.465Z,50.34
2023-05-16T08:30:59.493Z,51.30
2023-05-16T08:33:26.250Z,51.40
2023-05-16T08:35:53.659Z,49.53
2023-05-16T08:38:20.923Z,50.09
2023-05-16T08:40:47.732Z,50.11
2023-05-16T08:43:14.933Z,49.97
2023-05-16T08:45:44.396Z,50.20
2023-05-16T08:48:12.211Z,49.01
2023-05-16T08:50:39.128Z,47.85
2023-05-16T08:53:08.428Z,48.88
2023-05-16T08:55:36.840Z,49.49
2023-05-16T08:58:04.423Z,49.99
2023-05-16T09:00:31.920Z,49.75
2023-05-16T09:02:59.465Z,47.84
2023-05-16T09:05:28.406Z,47.23
2023-05-16T09:07:56.407Z,46.64
2023-05-16T09:10:24.683Z,45.99
2023-05-16T09:12:51.392Z,47.08
2023-05-16T09:15:20.261Z,47.20
2023-05-16T09:17:48.731Z,46.80
2023-05-16T09:20:19.093Z,47.76
2023-05-16T09:23:01.465Z,49.58
2023-05-16T09:25:32.065Z,47.42
2023-05-16T09:28:02.889Z,48.82
2023-05-16T09:30:32.517Z,49.79
2023-05-16T09:32:59.798Z,49.23
2023-05-16T09:37:56.998Z,48.76
2023-05-16T09:40:24.483Z,49.31
2023-05-16T09:43:05.910Z,48.66
2023-05-16T09:45:35.016Z,46.67
2023-05-16T09:48:06.968Z,46.88
2023-05-16T09:50:35.216Z,47.66
2023-05-16T09:53:02.622Z,48.14
2023-05-16T09:55:31.501Z,47.86
2023-05-16T09:57:58.394Z,49.27
2023-05-16T10:00:32.639Z,47.86
2023-05-16T10:03:04.338Z,47.47
2023-05-16T10:05:32.546Z,47.03
2023-05-16T10:07:59.232Z,46.91
2023-05-16T10:10:27.556Z,47.01
2023-05-16T10:12:59.214Z,46.84
2023-05-16T10:15:27.736Z,47.35
2023-05-16T10:17:57.833Z,47.39
2023-05-16T10:20:26.562Z,47.88
2023-05-16T10:22:56.166Z,47.75
2023-05-16T10:25:23.005Z,48.22
2023-05-16T10:27:51.232Z,47.91
2023-05-16T10:30:19.563Z,47.75
2023-05-16T10:32:46.960Z,47.72
2023-05-16T10:35:14.757Z,48.22
2023-05-16T10:37:42.602Z,48.91
2023-05-16T10:40:10.378Z,48.00
2023-05-16T10:42:37.176Z,48.52
2023-05-16T10:45:17.336Z,49.38
2023-05-16T10:47:57.079Z,50.41
2023-05-16T10:50:34.071Z,49.73
2023-05-16T10:53:23.928Z,49.22
2023-05-16T10:56:06.933Z,48.87
2023-05-16T10:58:33.615Z,48.89
2023-05-16T11:01:22.770Z,49.68
2023-05-16T11:03:58.713Z,49.83
2023-05-16T11:06:26.553Z,49.86
2023-05-16T11:09:11.449Z,49.41
2023-05-16T11:11:49.328Z,48.57
2023-05-16T11:14:24.019Z,46.58
2023-05-16T11:16:52.906Z,46.89
2023-05-16T11:19:43.769Z,47.55
2023-05-16T11:22:19.674Z,47.53
2023-05-16T11:24:59.342Z,47.64
2023-05-16T11:27:34.423Z,48.69
2023-05-16T11:30:03.565Z,47.46
2023-05-16T11:32:31.449Z,45.98
2023-05-16T11:34:58.889Z,46.33
2023-05-16T11:37:25.923Z,46.01
2023-05-16T11:39:52.727Z,46.46
2023-05-16T11:42:19.829Z,45.91
2023-05-16T11:44:46.866Z,46.35
2023-05-16T11:47:13.818Z,47.95
2023-05-16T11:49:41.768Z,48.53
2023-05-16T11:52:09.889Z,48.70
2023-05-16T11:54:37.023Z,49.38
2023-05-16T11:57:03.958Z,49.57
2023-05-16T11:59:31.314Z,49.86
2023-05-16T12:01:58.162Z,49.97
2023-05-16T12:04:28.525Z,49.22
2023-05-16T12:07:00.897Z,48.96
2023-05-16T12:09:27.677Z,49.04
2023-05-16T12:11:54.607Z,49.43
2023-05-16T12:14:21.646Z,49.78
2023-05-16T12:16:49.603Z,49.82
2023-05-16T12:19:17.074Z,49.33
2023-05-16T12:21:44.002Z,49.64
2023-05-16T12:24:13.046Z,49.72
2023-05-16T12:26:41.478Z,50.08
2023-05-16T12:29:08.310Z,50.39
2023-05-16T12:31:40.914Z,49.97
2023-05-16T12:34:18.557Z,49.38
2023-05-16T12:36:45.581Z,48.31
2023-05-16T12:39:14.159Z,48.83
2023-05-16T12:41:43.415Z,48.24
2023-05-16T12:44:17.997Z,48.06
2023-05-16T12:46:46.869Z,47.75
2023-05-16T12:49:14.656Z,47.42
2023-05-16T12:51:41.953Z,47.45
2023-05-16T12:54:11.935Z,48.35
2023-05-16T12:56:40.861Z,48.21
2023-05-16T12:59:08.585Z,48.76
2023-05-16T13:01:38.711Z,49.52
2023-05-16T13:04:06.147Z,50.08
2023-05-16T13:06:48.901Z,50.48
2023-05-16T13:09:20.038Z,51.12
2023-05-16T13:11:46.780Z,51.29
2023-05-16T13:14:13.567Z,51.23
2023-05-16T13:16:40.406Z,51.59
2023-05-16T13:19:08.153Z,51.62
2023-05-16T13:21:34.903Z,51.84
2023-05-16T13:24:01.723Z,51.89
2023-05-16T13:26:28.460Z,52.52
2023-05-16T13:28:55.672Z,52.57
2023-05-16T13:31:22.822Z,53.03
2023-05-16T13:33:49.610Z,52.96
2023-05-16T13:36:16.726Z,52.82
2023-05-16T13:38:43.558Z,52.80
2023-05-16T13:41:10.365Z,52.57
2023-05-16T13:43:37.147Z,52.86
2023-05-16T13:46:04.075Z,52.98
2023-05-16T13:48:31.062Z,53.13
2023-05-16T13:50:58.025Z,53.37
2023-05-16T13:53:26.565Z,53.68
2023-05-16T13:55:53.288Z,54.06
2023-05-16T13:58:20.150Z,53.58
2023-05-16T14:00:48.632Z,52.86
2023-05-16T14:03:15.770Z,53.79
2023-05-16T14:05:43.316Z,52.94
2023-05-16T14:08:10.066Z,52.61
2023-05-16T14:10:36.832Z,53.16
2023-05-16T14:13:06.320Z,53.95
2023-05-16T14:15:33.044Z,54.77
2023-05-16T14:18:00.099Z,56.08
2023-05-16T14:20:27.297Z,57.05
2023-05-16T14:22:54.071Z,57.88
2023-05-16T14:25:24.017Z,58.62
2023-05-16T14:27:51.310Z,58.81
2023-05-16T14:30:19.277Z,59.25
2023-05-16T14:32:46.056Z,59.42
2023-05-16T14:35:12.929Z,59.91
2023-05-16T14:37:40.152Z,60.15
2023-05-16T14:40:09.357Z,59.93
2023-05-16T14:42:36.456Z,60.12
2023-05-16T14:45:03.305Z,60.35
2023-05-16T14:47:31.424Z,61.01
2023-05-16T14:49:58.332Z,61.46
2023-05-16T14:52:25.107Z,62.10
2023-05-16T14:54:51.908Z,62.71
2023-05-16T14:57:18.979Z,62.88
2023-05-16T14:59:45.709Z,63.17
2023-05-16T15:02:12.562Z,63.82
2023-05-16T15:04:40.184Z,63.88
2023-05-16T15:07:07.629Z,64.30
2023-05-16T15:09:34.479Z,64.64
2023-05-16T15:12:02.177Z,64.84
2023-05-16T15:14:29.257Z,64.92
2023-05-16T15:16:56.167Z,65.14
2023-05-16T15:19:23.190Z,65.16
2023-05-16T15:21:50.083Z,65.53
2023-05-16T15:24:18.167Z,65.95
2023-05-16T15:26:44.930Z,66.52
2023-05-16T15:29:11.773Z,66.82
2023-05-16T15:31:38.521Z,67.46
2023-05-16T15:34:06.574Z,68.23
2023-05-16T15:36:33.510Z,69.46
2023-05-16T15:39:00.280Z,70.78
2023-05-16T15:43:58.674Z,72.24
2023-05-16T15:46:25.630Z,72.75
2023-05-16T15:48:52.662Z,74.18
2023-05-16T15:51:19.578Z,75.08
2023-05-16T15:53:48.055Z,75.79
2023-05-16T15:56:14.836Z,76.65
2023-05-16T15:58:41.893Z,77.46
2023-05-16T16:01:08.663Z,78.35
2023-05-16T16:03:35.642Z,78.48
2023-05-16T16:06:02.497Z,78.77
2023-05-16T16:08:30.375Z,78.99
2023-05-16T16:10:57.151Z,79.17
2023-05-16T16:13:24.508Z,79.62
2023-05-16T16:15:52.297Z,79.71
2023-05-16T16:18:19.153Z,80.05
2023-05-16T16:20:45.937Z,80.36
2023-05-16T16:23:12.742Z,80.39
2023-05-16T16:25:39.661Z,80.72
2023-05-16T16:28:06.737Z,80.68
2023-05-16T16:30:33.438Z,80.90
2023-05-16T16:33:00.423Z,80.72
2023-05-16T16:35:27.556Z,81.06
2023-05-16T16:40:29.207Z,81.59
2023-05-16T16:42:56.143Z,81.97
2023-05-16T16:45:22.995Z,82.48
2023-05-16T16:47:50.090Z,82.40
2023-05-16T16:50:16.904Z,82.62
2023-05-16T16:52:43.668Z,83.00
2023-05-16T16:55:10.566Z,83.13
2023-05-16T16:57:37.605Z,83.29
2023-05-16T17:00:04.894Z,83.40
2023-05-16T17:02:31.763Z,83.29
2023-05-16T17:04:58.609Z,83.34
2023-05-16T17:07:25.356Z,83.95
2023-05-16T17:09:54.021Z,84.16
2023-05-16T17:12:22.376Z,83.96
2023-05-16T17:14:51.481Z,84.32
2023-05-16T17:17:19.033Z,84.55
2023-05-16T17:19:47.210Z,84.59
2023-05-16T17:22:16.953Z,84.44
2023-05-16T17:24:43.875Z,84.68
2023-05-16T17:27:10.597Z,85.08
2023-05-16T17:29:37.638Z,85.62
2023-05-16T17:32:06.366Z,85.73
2023-05-16T17:34:33.525Z,86.37
2023-05-16T17:37:00.376Z,86.41
2023-05-16T17:39:27.121Z,86.78
2023-05-16T17:41:55.219Z,87.01
2023-05-16T17:44:21.988Z,87.45
2023-05-16T17:46:48.881Z,87.44
2023-05-16T17:49:15.725Z,87.61
2023-05-16T17:52:00.881Z,87.83
2023-05-16T17:54:31.165Z,87.75
2023-05-16T17:56:58.728Z,88.24
2023-05-16T17:59:27.575Z,88.10
2023-05-16T18:01:58.892Z,87.92
2023-05-16T18:04:26.210Z,87.56
2023-05-16T18:06:53.083Z,87.47
2023-05-16T18:09:21.055Z,87.39
2023-05-16T18:11:47.835Z,87.26
2023-05-16T18:14:15.575Z,87.08
2023-05-16T18:16:42.536Z,87.08
2023-05-16T18:19:09.554Z,87.30
2023-05-16T18:21:37.667Z,86.72
2023-05-16T18:24:05.624Z,86.73
2023-05-16T18:26:32.447Z,86.56
2023-05-16T18:28:59.470Z,86.99
2023-05-16T18:31:26.295Z,87.29
2023-05-16T18:33:53.023Z,87.66
2023-05-16T18:36:19.806Z,87.87
2023-05-16T18:38:46.603Z,88.16
2023-05-16T18:41:13.394Z,88.05
2023-05-16T18:43:40.144Z,88.30
2023-05-16T18:46:06.926Z,88.55
2023-05-16T18:48:35.962Z,88.63
2023-05-16T18:51:03.181Z,88.63
2023-05-16T18:53:29.994Z,88.80
2023-05-16T18:55:56.806Z,88.36
2023-05-16T18:58:23.632Z,88.53
2023-05-16T19:00:50.629Z,88.42
2023-05-16T19:03:17.580Z,88.35
2023-05-16T19:05:45.040Z,88.29
2023-05-16T19:08:12.126Z,88.37
2023-05-16T19:10:41.730Z,88.39
2023-05-16T19:13:09.152Z,88.39
2023-05-16T19:15:36.989Z,88.47
2023-05-16T19:18:05.179Z,88.30
2023-05-16T19:20:33.680Z,88.24
2023-05-16T19:23:00.986Z,88.37
2023-05-16T19:25:28.300Z,88.20
2023-05-16T19:27:55.179Z,88.22
2023-05-16T19:30:22.048Z,88.11
2023-05-16T19:32:48.854Z,87.96
2023-05-16T19:35:15.741Z,87.85
2023-05-16T19:37:42.441Z,87.51
2023-05-16T19:40:09.583Z,87.17
2023-05-16T19:42:36.369Z,87.12
2023-05-16T19:45:03.281Z,87.06
2023-05-16T19:47:30.164Z,87.25
2023-05-16T19:49:57.144Z,87.00
2023-05-16T19:52:26.289Z,86.83
2023-05-16T19:54:53.235Z,87.15
2023-05-16T19:57:22.668Z,87.31
2023-05-16T19:59:49.462Z,87.08
2023-05-16T20:02:21.029Z,87.01
2023-05-16T20:04:49.257Z,86.96
2023-05-16T20:07:15.995Z,87.33
2023-05-16T20:09:42.817Z,87.57
2023-05-16T20:12:10.036Z,87.67
2023-05-16T20:14:38.042Z,87.80
2023-05-16T20:17:04.737Z,87.84
2023-05-16T20:19:31.684Z,88.03
2023-05-16T20:21:58.687Z,88.02
2023-05-16T20:24:25.409Z,88.10
2023-05-16T20:26:52.257Z,88.20
2023-05-16T20:29:19.009Z,88.13
2023-05-16T20:31:45.766Z,88.08
2023-05-16T20:34:12.630Z,88.09
2023-05-16T20:36:39.601Z,87.78
2023-05-16T20:39:09.084Z,88.27
2023-05-16T20:41:36.081Z,88.19
2023-05-16T20:44:02.822Z,88.61
2023-05-16T20:46:29.678Z,88.66
2023-05-16T20:48:56.481Z,88.64
2023-05-16T20:51:23.346Z,88.99
2023-05-16T20:53:50.253Z,88.98
2023-05-16T20:56:16.959Z,89.36
2023-05-16T20:58:43.934Z,89.14
2023-05-16T21:01:10.838Z,89.25
2023-05-16T21:03:37.679Z,89.63
2023-05-16T21:06:04.713Z,89.70
2023-05-16T21:08:33.633Z,89.86
2023-05-16T21:11:00.509Z,89.79
2023-05-16T21:13:27.282Z,89.84
2023-05-16T21:15:54.046Z,90.25
2023-05-16T21:18:21.055Z,90.54
2023-05-16T21:20:47.754Z,90.81
2023-05-16T21:23:14.470Z,91.22
2023-05-16T21:25:41.318Z,91.18
2023-05-16T21:28:14.085Z,91.55
2023-05-16T21:30:40.838Z,91.69
2023-05-16T21:33:07.646Z,91.99
2023-05-16T21:35:34.697Z,91.94
2023-05-16T21:38:01.399Z,91.90
2023-05-16T21:40:29.026Z,92.07
2023-05-16T21:42:55.869Z,91.83
2023-05-16T21:45:22.719Z,92.01
2023-05-16T21:47:49.607Z,92.12
2023-05-16T21:50:17.516Z,92.35
2023-05-16T21:52:44.458Z,91.94
2023-05-16T21:55:11.427Z,91.89
2023-05-16T21:57:38.242Z,91.83
2023-05-16T22:00:09.377Z,92.01
2023-05-16T22:02:37.032Z,91.75
2023-05-16T22:05:05.078Z,91.93
2023-05-16T22:07:32.064Z,91.83
2023-05-16T22:09:59.696Z,92.07
2023-05-16T22:12:27.677Z,92.21
2023-05-16T22:14:54.519Z,92.12
2023-05-16T22:17:21.825Z,92.01
2023-05-16T22:19:48.873Z,92.13
2023-05-16T22:22:16.755Z,92.36
2023-05-16T22:24:43.602Z,92.09
2023-05-16T22:27:10.358Z,92.20
2023-05-16T22:29:39.890Z,92.32
2023-05-16T22:32:10.735Z,92.48
2023-05-16T22:34:41.119Z,92.68
2023-05-16T22:37:08.459Z,92.66
2023-05-16T22:39:35.883Z,92.98
2023-05-16T22:42:03.074Z,92.88
2023-05-16T22:44:30.121Z,92.96
2023-05-16T22:46:57.023Z,93.00
2023-05-16T22:49:23.930Z,93.04
2023-05-16T22:51:50.720Z,93.09
2023-05-16T22:54:17.860Z,92.85
2023-05-16T22:56:44.548Z,93.03
2023-05-16T22:59:11.383Z,92.91
2023-05-16T23:01:38.135Z,92.97
2023-05-16T23:04:05.149Z,93.12
2023-05-16T23:06:32.817Z,93.01
2023-05-16T23:09:04.202Z,93.34
2023-05-16T23:11:33.960Z,93.32
2023-05-16T23:14:00.917Z,93.53
2023-05-16T23:16:27.700Z,93.46
2023-05-16T23:18:54.610Z,93.78
2023-05-16T23:21:21.417Z,93.74
2023-05-16T23:23:48.246Z,93.72
2023-05-16T23:26:15.089Z,93.71
2023-05-16T23:28:41.799Z,93.68
2023-05-16T23:31:08.494Z,93.77
2023-05-16T23:33:35.350Z,93.72
2023-05-16T23:36:02.020Z,93.73
2023-05-16T23:38:28.677Z,93.94
2023-05-16T23:40:55.493Z,93.88
2023-05-16T23:43:22.146Z,93.72
2023-05-16T23:45:48.891Z,93.69
2023-05-16T23:48:15.946Z,93.53
2023-05-16T23:50:42.771Z,93.52
2023-05-16T23:53:09.539Z,93.48
2023-05-16T23:55:36.309Z,93.68
2023-05-16T23:58:03.199Z,93.72
